Leslie, Georgia
Current Conditions -  °F | °C
As of 9:35 AM on Saturday 25 Oct 2014 (Local Time) from KACJ Reporting Station
Clear Clear  
Wind Chill: 55°   Ceiling: Unl
Heat Index: 55°   Visibility: 10mi
Dew Point: 46°   Wind: 7mph
Humidity: 72%   Direction: 10°N
Pressure: 30.08"   Gusts: NA
Location:  31.96°N, 84.09°W
Report Text: KACJ 251335Z AUTO 01006KT 10SM CLR 13/08 A3008 RMK AO2
Loading
Personal Weather Stations






























Interactive Weather Map
Tropical Storm Tracking
New forecast layout! Learn more

10-Day Weather Forecast

Advertisements
Track Severe Weather on mobile